sensor_id;sensor_type;location;lat;lon;timestamp;pressure;altitude;pressure_sealevel;temperature;humidity
55675;BME280;41562;44.330;23.802;2023-02-18T00:01:00;100793.66;;;7.98;75.61
55675;BME280;41562;44.330;23.802;2023-02-18T00:03:28;100803.78;;;7.84;75.57
55675;BME280;41562;44.330;23.802;2023-02-18T00:05:56;100794.34;;;7.77;75.76
55675;BME280;41562;44.330;23.802;2023-02-18T00:08:23;100793.31;;;7.78;76.48
55675;BME280;41562;44.330;23.802;2023-02-18T00:10:50;100788.41;;;7.58;76.48
55675;BME280;41562;44.330;23.802;2023-02-18T00:13:17;100794.97;;;7.39;76.83
55675;BME280;41562;44.330;23.802;2023-02-18T00:15:45;100790.44;;;7.39;77.24
55675;BME280;41562;44.330;23.802;2023-02-18T00:18:12;100789.78;;;7.32;77.74
55675;BME280;41562;44.330;23.802;2023-02-18T00:20:40;100787.66;;;7.34;78.06
55675;BME280;41562;44.330;23.802;2023-02-18T00:23:07;100776.88;;;7.52;76.86
55675;BME280;41562;44.330;23.802;2023-02-18T00:25:34;100767.81;;;7.25;77.49
55675;BME280;41562;44.330;23.802;2023-02-18T00:28:02;100758.31;;;7.29;77.71
55675;BME280;41562;44.330;23.802;2023-02-18T00:30:29;100762.00;;;7.40;77.67
55675;BME280;41562;44.330;23.802;2023-02-18T00:32:57;100763.16;;;7.60;76.38
55675;BME280;41562;44.330;23.802;2023-02-18T00:35:27;100760.59;;;7.65;76.72
55675;BME280;41562;44.330;23.802;2023-02-18T00:37:54;100753.63;;;7.76;75.99
55675;BME280;41562;44.330;23.802;2023-02-18T00:40:21;100743.28;;;7.80;75.94
55675;BME280;41562;44.330;23.802;2023-02-18T00:42:49;100740.63;;;7.80;75.26
55675;BME280;41562;44.330;23.802;2023-02-18T00:45:16;100740.06;;;7.78;75.48
55675;BME280;41562;44.330;23.802;2023-02-18T00:47:44;100740.69;;;7.85;75.14
55675;BME280;41562;44.330;23.802;2023-02-18T00:50:11;100744.91;;;7.81;76.21
55675;BME280;41562;44.330;23.802;2023-02-18T00:52:38;100743.63;;;7.83;75.54
55675;BME280;41562;44.330;23.802;2023-02-18T00:55:06;100738.44;;;7.77;74.77
55675;BME280;41562;44.330;23.802;2023-02-18T00:57:33;100735.28;;;7.80;75.02
55675;BME280;41562;44.330;23.802;2023-02-18T01:00:03;100737.72;;;7.81;75.63
55675;BME280;41562;44.330;23.802;2023-02-18T01:02:30;100728.94;;;7.81;74.25
55675;BME280;41562;44.330;23.802;2023-02-18T01:04:57;100736.53;;;7.89;74.25
55675;BME280;41562;44.330;23.802;2023-02-18T01:07:25;100733.28;;;7.87;74.10
55675;BME280;41562;44.330;23.802;2023-02-18T01:09:52;100736.03;;;7.92;75.25
55675;BME280;41562;44.330;23.802;2023-02-18T01:12:20;100736.91;;;7.97;73.39
55675;BME280;41562;44.330;23.802;2023-02-18T01:14:47;100728.63;;;7.94;73.30
55675;BME280;41562;44.330;23.802;2023-02-18T01:17:14;100729.09;;;7.91;73.26
55675;BME280;41562;44.330;23.802;2023-02-18T01:19:41;100719.91;;;7.98;73.61
55675;BME280;41562;44.330;23.802;2023-02-18T01:22:09;100708.44;;;7.98;73.18
55675;BME280;41562;44.330;23.802;2023-02-18T01:24:36;100721.03;;;8.02;73.08
55675;BME280;41562;44.330;23.802;2023-02-18T01:27:03;100720.78;;;7.87;73.95
55675;BME280;41562;44.330;23.802;2023-02-18T01:29:31;100725.69;;;7.79;74.84
55675;BME280;41562;44.330;23.802;2023-02-18T01:31:58;100721.91;;;7.75;74.53
55675;BME280;41562;44.330;23.802;2023-02-18T01:34:25;100710.22;;;7.92;74.39
55675;BME280;41562;44.330;23.802;2023-02-18T01:36:53;100697.78;;;7.81;74.21
55675;BME280;41562;44.330;23.802;2023-02-18T01:39:27;100692.06;;;7.89;75.50
55675;BME280;41562;44.330;23.802;2023-02-18T01:41:54;100701.34;;;7.87;74.69
55675;BME280;41562;44.330;23.802;2023-02-18T01:44:24;100686.66;;;8.01;73.12
55675;BME280;41562;44.330;23.802;2023-02-18T01:46:52;100685.78;;;7.95;73.15
55675;BME280;41562;44.330;23.802;2023-02-18T01:49:24;100686.34;;;8.14;72.85
55675;BME280;41562;44.330;23.802;2023-02-18T01:52:02;100681.75;;;7.93;73.27
55675;BME280;41562;44.330;23.802;2023-02-18T01:54:33;100675.38;;;7.77;74.09
55675;BME280;41562;44.330;23.802;2023-02-18T02:00:06;100660.69;;;8.08;74.23
55675;BME280;41562;44.330;23.802;2023-02-18T02:02:36;100657.13;;;7.86;73.98
55675;BME280;41562;44.330;23.802;2023-02-18T02:05:06;100651.09;;;7.74;73.84
55675;BME280;41562;44.330;23.802;2023-02-18T02:07:33;100656.63;;;7.72;74.12
55675;BME280;41562;44.330;23.802;2023-02-18T02:10:01;100660.53;;;7.64;74.71
55675;BME280;41562;44.330;23.802;2023-02-18T02:27:23;100627.84;;;7.69;74.33
55675;BME280;41562;44.330;23.802;2023-02-18T02:32:50;100655.69;;;7.95;72.88
55675;BME280;41562;44.330;23.802;2023-02-18T02:35:25;100653.50;;;7.92;72.98
55675;BME280;41562;44.330;23.802;2023-02-18T02:40:52;100659.63;;;7.76;74.55
55675;BME280;41562;44.330;23.802;2023-02-18T02:43:35;100656.41;;;7.74;74.04
55675;BME280;41562;44.330;23.802;2023-02-18T02:46:14;100654.72;;;7.67;74.87
55675;BME280;41562;44.330;23.802;2023-02-18T02:51:49;100633.41;;;7.51;75.99
55675;BME280;41562;44.330;23.802;2023-02-18T02:54:24;100620.84;;;7.63;74.66
55675;BME280;41562;44.330;23.802;2023-02-18T02:59:46;100617.25;;;7.91;73.10
55675;BME280;41562;44.330;23.802;2023-02-18T03:02:37;100615.78;;;8.17;71.37
55675;BME280;41562;44.330;23.802;2023-02-18T03:22:10;100582.16;;;8.76;69.40
55675;BME280;41562;44.330;23.802;2023-02-18T03:24:41;100574.19;;;8.76;68.47
55675;BME280;41562;44.330;23.802;2023-02-18T03:29:44;100575.44;;;8.95;68.87
55675;BME280;41562;44.330;23.802;2023-02-18T03:32:15;100565.22;;;8.87;67.64
55675;BME280;41562;44.330;23.802;2023-02-18T03:34:49;100562.16;;;9.00;66.56
55675;BME280;41562;44.330;23.802;2023-02-18T03:37:19;100559.59;;;8.83;67.99
55675;BME280;41562;44.330;23.802;2023-02-18T03:39:50;100559.44;;;8.95;73.32
55675;BME280;41562;44.330;23.802;2023-02-18T03:42:18;100541.97;;;9.09;66.66
55675;BME280;41562;44.330;23.802;2023-02-18T03:44:45;100546.09;;;8.95;67.43
55675;BME280;41562;44.330;23.802;2023-02-18T03:47:13;100551.88;;;8.87;67.42
55675;BME280;41562;44.330;23.802;2023-02-18T03:49:40;100552.91;;;9.08;69.78
55675;BME280;41562;44.330;23.802;2023-02-18T03:52:07;100560.69;;;9.14;66.82
55675;BME280;41562;44.330;23.802;2023-02-18T03:54:35;100558.47;;;9.06;66.19
55675;BME280;41562;44.330;23.802;2023-02-18T03:57:02;100559.28;;;9.07;66.43
55675;BME280;41562;44.330;23.802;2023-02-18T03:59:29;100557.78;;;9.16;70.60
55675;BME280;41562;44.330;23.802;2023-02-18T04:01:56;100561.81;;;9.23;66.22
55675;BME280;41562;44.330;23.802;2023-02-18T04:04:24;100559.84;;;9.09;65.80
55675;BME280;41562;44.330;23.802;2023-02-18T04:06:51;100553.78;;;9.18;65.24
55675;BME280;41562;44.330;23.802;2023-02-18T04:09:18;100542.56;;;9.48;73.35
55675;BME280;41562;44.330;23.802;2023-02-18T04:11:46;100544.50;;;9.58;64.45
55675;BME280;41562;44.330;23.802;2023-02-18T04:14:14;100532.88;;;9.42;64.59
55675;BME280;41562;44.330;23.802;2023-02-18T04:16:41;100535.25;;;9.34;64.68
55675;BME280;41562;44.330;23.802;2023-02-18T04:19:09;100526.19;;;9.35;65.77
55675;BME280;41562;44.330;23.802;2023-02-18T04:21:36;100521.00;;;10.89;67.56
55675;BME280;41562;44.330;23.802;2023-02-18T04:24:04;100516.56;;;12.15;57.95
55675;BME280;41562;44.330;23.802;2023-02-18T04:26:32;100520.06;;;12.70;56.02
55675;BME280;41562;44.330;23.802;2023-02-18T04:28:59;100505.47;;;12.86;55.75
55675;BME280;41562;44.330;23.802;2023-02-18T04:31:26;100509.53;;;13.17;58.40
55675;BME280;41562;44.330;23.802;2023-02-18T04:33:54;100516.34;;;12.61;54.10
55675;BME280;41562;44.330;23.802;2023-02-18T04:36:21;100525.56;;;11.19;58.16
55675;BME280;41562;44.330;23.802;2023-02-18T04:38:48;100527.03;;;10.39;60.61
55675;BME280;41562;44.330;23.802;2023-02-18T04:41:16;100516.69;;;10.01;62.28
55675;BME280;41562;44.330;23.802;2023-02-18T04:43:43;100526.28;;;9.92;62.68
55675;BME280;41562;44.330;23.802;2023-02-18T04:46:11;100513.19;;;9.90;62.87
55675;BME280;41562;44.330;23.802;2023-02-18T04:48:38;100508.28;;;9.72;63.09
55675;BME280;41562;44.330;23.802;2023-02-18T04:51:06;100510.44;;;9.80;64.79
55675;BME280;41562;44.330;23.802;2023-02-18T04:53:33;100503.47;;;9.74;65.42
55675;BME280;41562;44.330;23.802;2023-02-18T04:56:06;100502.28;;;9.55;64.83
55675;BME280;41562;44.330;23.802;2023-02-18T04:58:35;100497.03;;;9.70;65.81
55675;BME280;41562;44.330;23.802;2023-02-18T05:01:04;100494.56;;;9.58;63.73
55675;BME280;41562;44.330;23.802;2023-02-18T05:03:32;100510.06;;;9.61;67.35
55675;BME280;41562;44.330;23.802;2023-02-18T05:06:00;100510.13;;;9.72;64.46
55675;BME280;41562;44.330;23.802;2023-02-18T05:08:28;100516.53;;;9.71;65.00
55675;BME280;41562;44.330;23.802;2023-02-18T05:10:55;100517.94;;;9.83;68.74
55675;BME280;41562;44.330;23.802;2023-02-18T05:13:24;100507.59;;;9.97;66.37
55675;BME280;41562;44.330;23.802;2023-02-18T05:15:52;100512.16;;;10.01;71.45
55675;BME280;41562;44.330;23.802;2023-02-18T05:18:19;100515.94;;;10.11;70.47
55675;BME280;41562;44.330;23.802;2023-02-18T05:20:47;100512.28;;;10.17;65.00
55675;BME280;41562;44.330;23.802;2023-02-18T05:23:15;100508.53;;;10.18;62.54
55675;BME280;41562;44.330;23.802;2023-02-18T05:25:42;100503.56;;;9.94;62.51
55675;BME280;41562;44.330;23.802;2023-02-18T05:28:10;100490.22;;;9.99;67.18
55675;BME280;41562;44.330;23.802;2023-02-18T05:30:37;100485.44;;;10.01;66.97
55675;BME280;41562;44.330;23.802;2023-02-18T05:33:04;100479.06;;;10.07;64.17
55675;BME280;41562;44.330;23.802;2023-02-18T05:35:32;100478.13;;;9.82;63.01
55675;BME280;41562;44.330;23.802;2023-02-18T05:37:59;100478.47;;;9.90;62.97
55675;BME280;41562;44.330;23.802;2023-02-18T05:40:33;100478.81;;;10.09;66.10
55675;BME280;41562;44.330;23.802;2023-02-18T05:43:00;100489.75;;;10.13;64.53
55675;BME280;41562;44.330;23.802;2023-02-18T05:45:28;100490.50;;;9.98;62.82
55675;BME280;41562;44.330;23.802;2023-02-18T05:47:55;100483.78;;;9.85;62.57
55675;BME280;41562;44.330;23.802;2023-02-18T05:50:23;100487.53;;;9.94;64.88
55675;BME280;41562;44.330;23.802;2023-02-18T05:52:51;100489.75;;;10.07;64.44
55675;BME280;41562;44.330;23.802;2023-02-18T05:55:18;100485.44;;;10.01;62.80
55675;BME280;41562;44.330;23.802;2023-02-18T05:57:45;100486.72;;;9.89;63.06
55675;BME280;41562;44.330;23.802;2023-02-18T06:00:16;100484.25;;;10.24;73.05
55675;BME280;41562;44.330;23.802;2023-02-18T06:02:46;100492.50;;;10.18;63.76
55675;BME280;41562;44.330;23.802;2023-02-18T06:05:13;100484.38;;;10.02;63.13
55675;BME280;41562;44.330;23.802;2023-02-18T06:07:47;100483.56;;;10.02;64.08
55675;BME280;41562;44.330;23.802;2023-02-18T06:10:22;100488.69;;;10.14;66.27
55675;BME280;41562;44.330;23.802;2023-02-18T06:12:50;100483.16;;;10.25;63.27
55675;BME280;41562;44.330;23.802;2023-02-18T06:15:18;100474.31;;;10.20;63.15
55675;BME280;41562;44.330;23.802;2023-02-18T06:17:45;100472.38;;;10.05;63.46
55675;BME280;41562;44.330;23.802;2023-02-18T06:20:13;100469.53;;;10.27;66.08
55675;BME280;41562;44.330;23.802;2023-02-18T06:22:41;100474.66;;;10.43;65.15
55675;BME280;41562;44.330;23.802;2023-02-18T06:25:08;100483.72;;;10.37;62.01
55675;BME280;41562;44.330;23.802;2023-02-18T06:27:35;100475.13;;;10.20;62.30
55675;BME280;41562;44.330;23.802;2023-02-18T06:30:03;100474.38;;;10.30;63.89
55675;BME280;41562;44.330;23.802;2023-02-18T06:32:30;100468.03;;;10.66;70.93
55675;BME280;41562;44.330;23.802;2023-02-18T06:34:58;100470.34;;;10.37;62.31
55675;BME280;41562;44.330;23.802;2023-02-18T06:37:25;100475.94;;;10.26;62.61
55675;BME280;41562;44.330;23.802;2023-02-18T06:39:52;100479.16;;;10.28;67.17
55675;BME280;41562;44.330;23.802;2023-02-18T06:42:20;100474.94;;;10.57;63.86
55675;BME280;41562;44.330;23.802;2023-02-18T06:44:47;100484.28;;;10.39;63.69
55675;BME280;41562;44.330;23.802;2023-02-18T06:47:15;100490.16;;;10.36;64.14
55675;BME280;41562;44.330;23.802;2023-02-18T06:49:42;100483.47;;;10.39;64.28
55675;BME280;41562;44.330;23.802;2023-02-18T06:52:09;100487.00;;;10.60;65.25
55675;BME280;41562;44.330;23.802;2023-02-18T06:54:36;100488.31;;;10.62;63.38
55675;BME280;41562;44.330;23.802;2023-02-18T06:57:04;100494.22;;;10.69;62.99
55675;BME280;41562;44.330;23.802;2023-02-18T06:59:31;100478.16;;;10.59;62.29
55675;BME280;41562;44.330;23.802;2023-02-18T07:01:59;100488.09;;;10.79;65.14
55675;BME280;41562;44.330;23.802;2023-02-18T07:04:26;100469.13;;;10.80;62.46
55675;BME280;41562;44.330;23.802;2023-02-18T07:06:53;100472.31;;;10.77;62.06
55675;BME280;41562;44.330;23.802;2023-02-18T07:09:20;100477.09;;;10.75;61.53
55675;BME280;41562;44.330;23.802;2023-02-18T07:11:48;100481.94;;;11.04;68.63
55675;BME280;41562;44.330;23.802;2023-02-18T07:14:15;100475.00;;;10.93;61.25
55675;BME280;41562;44.330;23.802;2023-02-18T07:16:42;100477.41;;;10.84;61.41
55675;BME280;41562;44.330;23.802;2023-02-18T07:19:10;100468.28;;;10.70;61.08
55675;BME280;41562;44.330;23.802;2023-02-18T07:21:37;100468.81;;;11.27;66.64
55675;BME280;41562;44.330;23.802;2023-02-18T07:24:05;100477.16;;;11.06;60.17
55675;BME280;41562;44.330;23.802;2023-02-18T07:26:32;100464.28;;;10.87;60.51
55675;BME280;41562;44.330;23.802;2023-02-18T07:28:59;100466.97;;;10.77;60.97
55675;BME280;41562;44.330;23.802;2023-02-18T07:31:27;100466.97;;;11.08;64.71
55675;BME280;41562;44.330;23.802;2023-02-18T07:33:54;100470.44;;;11.13;60.35
55675;BME280;41562;44.330;23.802;2023-02-18T07:36:21;100484.09;;;10.92;60.81
55675;BME280;41562;44.330;23.802;2023-02-18T07:38:49;100479.25;;;10.83;60.89
55675;BME280;41562;44.330;23.802;2023-02-18T07:41:19;100474.47;;;11.06;66.12
55675;BME280;41562;44.330;23.802;2023-02-18T07:43:47;100468.81;;;11.07;61.30
55675;BME280;41562;44.330;23.802;2023-02-18T07:46:15;100462.94;;;11.10;60.81
55675;BME280;41562;44.330;23.802;2023-02-18T07:48:43;100471.53;;;10.87;61.65
55675;BME280;41562;44.330;23.802;2023-02-18T07:51:12;100471.75;;;11.36;65.70
55675;BME280;41562;44.330;23.802;2023-02-18T07:53:40;100462.66;;;11.27;60.30
55675;BME280;41562;44.330;23.802;2023-02-18T07:56:07;100470.72;;;11.17;60.62
55675;BME280;41562;44.330;23.802;2023-02-18T07:58:37;100459.44;;;11.20;60.84
55675;BME280;41562;44.330;23.802;2023-02-18T08:01:06;100473.34;;;11.42;64.86
55675;BME280;41562;44.330;23.802;2023-02-18T08:03:34;100472.28;;;11.33;60.49
55675;BME280;41562;44.330;23.802;2023-02-18T08:06:05;100475.75;;;11.39;60.60
55675;BME280;41562;44.330;23.802;2023-02-18T08:08:34;100472.56;;;11.37;60.35
55675;BME280;41562;44.330;23.802;2023-02-18T08:11:03;100474.69;;;11.50;60.60
55675;BME280;41562;44.330;23.802;2023-02-18T08:13:44;100474.44;;;11.41;60.80
55675;BME280;41562;44.330;23.802;2023-02-18T08:16:14;100484.59;;;11.39;60.91
55675;BME280;41562;44.330;23.802;2023-02-18T08:18:42;100480.88;;;11.35;61.48
55675;BME280;41562;44.330;23.802;2023-02-18T08:21:10;100465.81;;;11.69;68.80
55675;BME280;41562;44.330;23.802;2023-02-18T08:23:37;100469.00;;;11.72;60.82
55675;BME280;41562;44.330;23.802;2023-02-18T08:26:05;100469.06;;;11.56;61.85
55675;BME280;41562;44.330;23.802;2023-02-18T08:28:33;100459.69;;;11.54;61.46
55675;BME280;41562;44.330;23.802;2023-02-18T08:31:01;100463.66;;;11.82;61.51
55675;BME280;41562;44.330;23.802;2023-02-18T08:33:28;100473.84;;;11.80;60.83
55675;BME280;41562;44.330;23.802;2023-02-18T08:35:56;100463.63;;;11.72;61.39
55675;BME280;41562;44.330;23.802;2023-02-18T08:38:23;100476.50;;;11.85;61.07
55675;BME280;41562;44.330;23.802;2023-02-18T08:41:00;100473.19;;;12.08;62.17
55675;BME280;41562;44.330;23.802;2023-02-18T08:43:27;100472.09;;;12.09;60.55
55675;BME280;41562;44.330;23.802;2023-02-18T08:45:56;100491.34;;;12.21;65.40
55675;BME280;41562;44.330;23.802;2023-02-18T08:48:25;100493.50;;;12.14;61.09
55675;BME280;41562;44.330;23.802;2023-02-18T08:50:56;100478.72;;;12.32;62.57
55675;BME280;41562;44.330;23.802;2023-02-18T08:53:23;100494.50;;;12.33;61.12
55675;BME280;41562;44.330;23.802;2023-02-18T08:55:51;100494.59;;;12.18;61.60
55675;BME280;41562;44.330;23.802;2023-02-18T08:58:19;100492.94;;;12.27;61.54
55675;BME280;41562;44.330;23.802;2023-02-18T09:00:46;100489.00;;;12.59;68.65
55675;BME280;41562;44.330;23.802;2023-02-18T09:03:14;100487.72;;;12.51;60.97
55675;BME280;41562;44.330;23.802;2023-02-18T09:05:42;100491.72;;;12.54;60.91
55675;BME280;41562;44.330;23.802;2023-02-18T09:08:09;100492.53;;;12.54;60.93
55675;BME280;41562;44.330;23.802;2023-02-18T09:10:36;100497.53;;;12.66;62.68
55675;BME280;41562;44.330;23.802;2023-02-18T09:13:04;100502.56;;;12.77;61.08
55675;BME280;41562;44.330;23.802;2023-02-18T09:15:31;100497.69;;;12.84;60.06
55675;BME280;41562;44.330;23.802;2023-02-18T09:17:58;100491.06;;;12.77;60.45
55675;BME280;41562;44.330;23.802;2023-02-18T09:20:26;100491.19;;;12.90;64.26
55675;BME280;41562;44.330;23.802;2023-02-18T09:22:54;100495.75;;;12.95;59.89
55675;BME280;41562;44.330;23.802;2023-02-18T09:25:21;100498.88;;;13.07;59.01
55675;BME280;41562;44.330;23.802;2023-02-18T09:27:48;100494.09;;;12.99;58.86
55675;BME280;41562;44.330;23.802;2023-02-18T09:30:16;100477.63;;;13.11;64.87
55675;BME280;41562;44.330;23.802;2023-02-18T09:32:43;100478.19;;;13.13;59.23
55675;BME280;41562;44.330;23.802;2023-02-18T09:35:10;100489.63;;;13.23;58.21
55675;BME280;41562;44.330;23.802;2023-02-18T09:37:38;100474.22;;;13.00;58.92
55675;BME280;41562;44.330;23.802;2023-02-18T09:40:06;100477.75;;;13.29;64.11
55675;BME280;41562;44.330;23.802;2023-02-18T09:42:34;100479.16;;;13.22;58.47
55675;BME280;41562;44.330;23.802;2023-02-18T09:45:07;100471.97;;;13.17;58.12
55675;BME280;41562;44.330;23.802;2023-02-18T09:47:41;100484.88;;;13.10;58.45
55675;BME280;41562;44.330;23.802;2023-02-18T09:52:45;100471.41;;;13.20;58.74
55675;BME280;41562;44.330;23.802;2023-02-18T09:57:48;100487.84;;;13.14;59.86
55675;BME280;41562;44.330;23.802;2023-02-18T10:02:57;100505.09;;;13.37;59.50
55675;BME280;41562;44.330;23.802;2023-02-18T10:05:27;100504.97;;;13.18;59.65
55675;BME280;41562;44.330;23.802;2023-02-18T10:08:03;100496.28;;;13.31;59.86
55675;BME280;41562;44.330;23.802;2023-02-18T10:10:41;100495.09;;;13.42;61.29
55675;BME280;41562;44.330;23.802;2023-02-18T10:13:15;100485.06;;;13.53;59.51
55675;BME280;41562;44.330;23.802;2023-02-18T10:15:43;100480.31;;;13.45;60.22
55675;BME280;41562;44.330;23.802;2023-02-18T10:20:44;100469.09;;;13.38;60.37
55675;BME280;41562;44.330;23.802;2023-02-18T10:23:13;100464.19;;;13.45;60.47
55675;BME280;41562;44.330;23.802;2023-02-18T10:25:44;100459.63;;;13.45;60.46
55675;BME280;41562;44.330;23.802;2023-02-18T10:28:12;100451.72;;;13.54;60.51
55675;BME280;41562;44.330;23.802;2023-02-18T10:30:42;100439.09;;;13.78;61.81
55675;BME280;41562;44.330;23.802;2023-02-18T10:33:29;100453.50;;;13.87;59.55
55675;BME280;41562;44.330;23.802;2023-02-18T10:36:15;100445.44;;;13.87;59.46
55675;BME280;41562;44.330;23.802;2023-02-18T10:38:49;100445.31;;;13.74;59.31
55675;BME280;41562;44.330;23.802;2023-02-18T10:41:33;100439.16;;;14.16;63.56
55675;BME280;41562;44.330;23.802;2023-02-18T10:44:36;100442.28;;;13.80;59.22
55675;BME280;41562;44.330;23.802;2023-02-18T10:52:20;100437.22;;;13.97;58.97
55675;BME280;41562;44.330;23.802;2023-02-18T10:54:52;100422.78;;;14.12;58.41
55675;BME280;41562;44.330;23.802;2023-02-18T10:57:25;100436.03;;;14.08;57.39
55675;BME280;41562;44.330;23.802;2023-02-18T10:59:59;100423.44;;;14.23;57.38
55675;BME280;41562;44.330;23.802;2023-02-18T11:02:29;100429.28;;;14.67;56.98
55675;BME280;41562;44.330;23.802;2023-02-18T11:04:59;100420.47;;;14.80;55.94
55675;BME280;41562;44.330;23.802;2023-02-18T11:07:33;100429.41;;;14.76;55.81
55675;BME280;41562;44.330;23.802;2023-02-18T11:10:28;100424.56;;;14.78;55.45
55675;BME280;41562;44.330;23.802;2023-02-18T11:12:59;100431.13;;;15.04;55.45
55675;BME280;41562;44.330;23.802;2023-02-18T11:15:28;100426.91;;;14.47;55.92
55675;BME280;41562;44.330;23.802;2023-02-18T11:18:12;100413.31;;;14.38;55.89
55675;BME280;41562;44.330;23.802;2023-02-18T11:20:40;100420.09;;;15.88;60.07
55675;BME280;41562;44.330;23.802;2023-02-18T11:23:17;100422.72;;;15.06;54.88
55675;BME280;41562;44.330;23.802;2023-02-18T11:25:57;100424.28;;;15.39;54.33
55675;BME280;41562;44.330;23.802;2023-02-18T11:28:42;100416.16;;;14.47;56.27
55675;BME280;41562;44.330;23.802;2023-02-18T11:31:19;100426.81;;;14.71;60.60
55675;BME280;41562;44.330;23.802;2023-02-18T11:33:59;100420.50;;;14.43;57.11
55675;BME280;41562;44.330;23.802;2023-02-18T11:36:32;100414.13;;;14.39;57.30
55675;BME280;41562;44.330;23.802;2023-02-18T11:39:03;100425.66;;;14.21;57.79
55675;BME280;41562;44.330;23.802;2023-02-18T11:41:36;100430.44;;;14.61;58.69
55675;BME280;41562;44.330;23.802;2023-02-18T11:44:28;100405.88;;;14.49;57.99
55675;BME280;41562;44.330;23.802;2023-02-18T11:49:42;100394.63;;;14.47;58.91
55675;BME280;41562;44.330;23.802;2023-02-18T11:54:40;100392.97;;;14.83;59.02
55675;BME280;41562;44.330;23.802;2023-02-18T11:57:11;100383.88;;;14.79;58.92
55675;BME280;41562;44.330;23.802;2023-02-18T11:59:43;100382.75;;;14.80;58.71
55675;BME280;41562;44.330;23.802;2023-02-18T12:04:52;100363.31;;;15.29;58.52
55675;BME280;41562;44.330;23.802;2023-02-18T12:08:00;100374.69;;;15.26;57.84
55675;BME280;41562;44.330;23.802;2023-02-18T12:10:53;100360.91;;;15.14;60.67
55675;BME280;41562;44.330;23.802;2023-02-18T12:13:27;100361.72;;;15.28;58.30
55675;BME280;41562;44.330;23.802;2023-02-18T12:21:43;100367.69;;;15.39;59.08
55675;BME280;41562;44.330;23.802;2023-02-18T12:32:17;100368.56;;;16.03;56.95
55675;BME280;41562;44.330;23.802;2023-02-18T12:35:02;100369.19;;;15.86;55.31
55675;BME280;41562;44.330;23.802;2023-02-18T12:46:07;100347.28;;;15.88;54.85
55675;BME280;41562;44.330;23.802;2023-02-18T12:57:13;100337.38;;;15.61;56.52
55675;BME280;41562;44.330;23.802;2023-02-18T13:05:45;100330.66;;;15.86;56.01
55675;BME280;41562;44.330;23.802;2023-02-18T13:14:13;100315.16;;;15.78;56.31
55675;BME280;41562;44.330;23.802;2023-02-18T13:16:45;100314.13;;;15.87;56.47
55675;BME280;41562;44.330;23.802;2023-02-18T13:21:48;100305.31;;;15.73;58.77
55675;BME280;41562;44.330;23.802;2023-02-18T13:24:25;100311.41;;;15.38;58.44
55675;BME280;41562;44.330;23.802;2023-02-18T13:27:52;100318.09;;;15.13;59.31
55675;BME280;41562;44.330;23.802;2023-02-18T13:30:16;100319.69;;;15.00;59.84
55675;BME280;41562;44.330;23.802;2023-02-18T13:40:49;100302.03;;;14.94;62.18
55675;BME280;41562;44.330;23.802;2023-02-18T13:43:28;100306.72;;;15.02;60.13
55675;BME280;41562;44.330;23.802;2023-02-18T13:46:13;100312.19;;;15.24;58.40
55675;BME280;41562;44.330;23.802;2023-02-18T13:48:52;100313.59;;;14.95;59.56
55675;BME280;41562;44.330;23.802;2023-02-18T13:51:46;100314.22;;;15.33;62.74
55675;BME280;41562;44.330;23.802;2023-02-18T13:54:23;100315.00;;;15.06;59.44
55675;BME280;41562;44.330;23.802;2023-02-18T13:56:56;100320.88;;;14.94;59.63
55675;BME280;41562;44.330;23.802;2023-02-18T13:59:37;100328.94;;;14.94;59.64
55675;BME280;41562;44.330;23.802;2023-02-18T14:02:29;100326.88;;;15.05;61.83
55675;BME280;41562;44.330;23.802;2023-02-18T14:10:23;100359.19;;;14.59;62.00
55675;BME280;41562;44.330;23.802;2023-02-18T14:31:01;100344.94;;;14.58;70.24
55675;BME280;41562;44.330;23.802;2023-02-18T14:33:31;100348.63;;;14.62;62.34
55675;BME280;41562;44.330;23.802;2023-02-18T14:36:31;100341.41;;;14.44;62.83
55675;BME280;41562;44.330;23.802;2023-02-18T14:41:59;100351.59;;;14.79;64.52
55675;BME280;41562;44.330;23.802;2023-02-18T14:48:03;100339.34;;;14.36;63.72
55675;BME280;41562;44.330;23.802;2023-02-18T14:50:22;100340.44;;;14.35;63.75
55675;BME280;41562;44.330;23.802;2023-02-18T14:52:57;100346.53;;;14.59;64.23
55675;BME280;41562;44.330;23.802;2023-02-18T14:55:29;100334.69;;;14.23;64.29
55675;BME280;41562;44.330;23.802;2023-02-18T14:58:02;100338.78;;;14.20;63.77
55675;BME280;41562;44.330;23.802;2023-02-18T15:00:33;100345.84;;;14.16;63.86
55675;BME280;41562;44.330;23.802;2023-02-18T15:03:01;100340.63;;;14.57;63.43
55675;BME280;41562;44.330;23.802;2023-02-18T15:05:31;100327.31;;;14.15;63.88
55675;BME280;41562;44.330;23.802;2023-02-18T15:08:22;100340.03;;;14.09;64.20
55675;BME280;41562;44.330;23.802;2023-02-18T15:10:51;100338.28;;;13.99;64.13
55675;BME280;41562;44.330;23.802;2023-02-18T15:13:25;100344.31;;;14.29;64.27
55675;BME280;41562;44.330;23.802;2023-02-18T15:15:56;100342.56;;;14.19;63.43
55675;BME280;41562;44.330;23.802;2023-02-18T15:21:02;100329.56;;;13.89;64.64
55675;BME280;41562;44.330;23.802;2023-02-18T15:23:34;100319.38;;;14.04;64.50
55675;BME280;41562;44.330;23.802;2023-02-18T15:26:03;100314.53;;;13.88;64.50
55675;BME280;41562;44.330;23.802;2023-02-18T15:28:41;100318.56;;;13.85;64.76
55675;BME280;41562;44.330;23.802;2023-02-18T15:31:10;100321.34;;;13.80;68.82
55675;BME280;41562;44.330;23.802;2023-02-18T15:33:42;100319.16;;;13.82;65.89
55675;BME280;41562;44.330;23.802;2023-02-18T15:36:13;100318.06;;;13.64;66.63
55675;BME280;41562;44.330;23.802;2023-02-18T15:38:40;100330.63;;;13.69;74.21